Time;durP1;ratioP1;P1;durP2;ratioP2;P2;SDS_P1;SDS_P2;PMS_P1;PMS_P2;Temp;Humidity;BMP_temperature;BMP_pressure;BME280_temperature;BME280_humidity;BME280_pressure;Samples;Min_cycle;Max_cycle;Signal;HPM_P1;HPM_P2
2021/08/25 00:02:26;;;;;;;10.52;5.30;;;;;;;22.48;56.15;99832.22;5032309;28;20099;-63
2021/08/25 00:04:54;;;;;;;10.65;5.45;;;;;;;22.41;56.56;99815.03;5032146;28;20506;-63
2021/08/25 00:07:22;;;;;;;13.50;5.78;;;;;;;22.42;56.58;99819.50;5032149;28;20129;-64
2021/08/25 00:09:49;;;;;;;18.38;6.75;;;;;;;22.31;57.19;99815.66;5032540;28;20124;-63
2021/08/25 00:12:16;;;;;;;12.82;6.00;;;;;;;22.31;57.61;99832.72;5032667;28;20144;-64
2021/08/25 00:14:43;;;;;;;10.52;5.85;;;;;;;22.17;57.44;99816.22;5032295;28;20140;-63
2021/08/25 00:17:11;;;;;;;10.40;5.47;;;;;;;22.21;57.88;99821.97;5031929;28;20124;-64
2021/08/25 00:19:37;;;;;;;9.57;5.45;;;;;;;22.26;57.73;99832.19;5032284;28;20171;-64
2021/08/25 00:22:05;;;;;;;9.15;5.57;;;;;;;22.19;58.00;99824.38;5032119;28;20141;-64
2021/08/25 00:24:31;;;;;;;13.15;7.18;;;;;;;22.21;58.33;99834.16;5032826;28;20605;-64
2021/08/25 00:26:58;;;;;;;17.25;7.00;;;;;;;22.16;58.62;99825.13;5034976;28;20128;-65
2021/08/25 00:29:25;;;;;;;13.00;6.22;;;;;;;22.21;58.50;99836.19;5035997;28;20111;-64
2021/08/25 00:31:52;;;;;;;16.45;5.88;;;;;;;22.18;58.50;99831.25;5035432;28;20084;-64
2021/08/25 00:34:19;;;;;;;13.25;6.22;;;;;;;22.18;58.90;99826.38;5034615;28;20130;-64
2021/08/25 00:36:45;;;;;;;10.30;5.68;;;;;;;22.16;58.98;99819.44;5036166;28;20072;-64
2021/08/25 00:39:12;;;;;;;10.38;5.82;;;;;;;22.07;58.93;99804.59;5035564;28;20132;-63
2021/08/25 00:41:39;;;;;;;10.07;5.43;;;;;;;22.14;59.02;99818.97;5036101;28;20088;-64
2021/08/25 00:44:06;;;;;;;14.73;6.78;;;;;;;22.13;59.30;99815.28;5044473;28;20124;-63
2021/08/25 00:46:36;;;;;;;11.10;6.80;;;;;;;22.04;59.38;99802.50;5055772;28;20186;-63
2021/08/25 00:49:03;;;;;;;14.73;7.15;;;;;;;22.11;59.40;99811.19;5044372;28;20369;-63
2021/08/25 00:51:30;;;;;;;16.48;7.70;;;;;;;22.10;59.50;99815.22;5035645;28;20045;-63
2021/08/25 00:54:00;;;;;;;14.25;7.15;;;;;;;22.07;59.55;99811.09;5035427;28;20081;-63
2021/08/25 00:56:27;;;;;;;24.35;9.05;;;;;;;22.08;59.79;99806.25;5035529;28;20049;-64
2021/08/25 00:58:54;;;;;;;14.60;7.45;;;;;;;22.08;60.26;99806.25;5035745;28;20056;-64
2021/08/25 01:02:03;;;;;;;15.23;8.63;;;;;;;21.95;60.23;99797.91;5042046;28;20141;-64
2021/08/25 01:04:44;;;;;;;19.55;8.95;;;;;;;22.07;60.67;99805.41;5034948;28;20050;-64
2021/08/25 01:07:16;;;;;;;17.90;9.18;;;;;;;22.09;60.57;99803.03;5034036;28;20129;-64
2021/08/25 01:09:43;;;;;;;19.77;8.57;;;;;;;22.09;60.85;99803.03;5035318;28;20052;-64
2021/08/25 01:12:11;;;;;;;21.25;8.77;;;;;;;22.05;60.92;99779.41;5035567;28;20469;-64
2021/08/25 01:14:40;;;;;;;22.15;9.63;;;;;;;21.85;60.94;99735.16;5035066;28;20141;-64
2021/08/25 01:17:09;;;;;;;25.33;9.45;;;;;;;22.14;60.94;99785.66;5035719;28;20084;-64
2021/08/25 01:20:05;;;;;;;21.02;8.48;;;;;;;22.10;60.81;99789.63;5035375;28;20089;-64
2021/08/25 01:22:32;;;;;;;23.83;10.40;;;;;;;22.01;61.41;99787.03;5034291;28;20532;-64
2021/08/25 01:24:59;;;;;;;20.58;10.65;;;;;;;21.93;61.71;99776.72;5034731;28;20132;-64
2021/08/25 01:27:29;;;;;;;32.63;11.13;;;;;;;21.83;61.97;99772.47;5035107;28;20120;-64
2021/08/25 01:29:58;;;;;;;20.40;9.57;;;;;;;21.88;61.86;99777.84;5035225;28;20077;-64
2021/08/25 01:32:26;;;;;;;28.33;12.15;;;;;;;21.93;61.71;99780.38;5034586;28;20084;-64
2021/08/25 01:34:58;;;;;;;26.80;11.35;;;;;;;21.89;62.26;99776.66;5034787;28;20274;-64
2021/08/25 01:37:26;;;;;;;24.02;10.73;;;;;;;21.83;62.47;99772.47;5033683;28;20448;-64
2021/08/25 01:39:53;;;;;;;30.58;12.93;;;;;;;;;;5035012;28;20073;-64
2021/08/25 01:42:22;;;;;;;33.58;12.55;;;;;;;21.69;63.25;99773.00;5034528;28;20132;-64
2021/08/25 01:44:49;;;;;;;43.15;12.77;;;;;;;21.71;63.06;99762.09;5049987;28;20080;-63
2021/08/25 01:47:16;;;;;;;30.27;13.43;;;;;;;;;;5054466;28;20103;-63
2021/08/25 01:49:44;;;;;;;37.30;13.63;;;;;;;21.71;63.49;99759.25;5051248;28;20497;-63
2021/08/25 01:52:12;;;;;;;35.20;12.88;;;;;;;21.67;63.47;99749.81;5034361;28;20132;-64
2021/08/25 01:54:39;;;;;;;31.45;13.75;;;;;;;21.64;63.64;99739.22;5034362;28;20688;-65
2021/08/25 01:57:06;;;;;;;38.28;14.07;;;;;;;21.49;63.60;99709.69;5034287;28;20121;-63
2021/08/25 01:59:34;;;;;;;32.83;13.57;;;;;;;21.73;63.44;99738.97;5038686;28;20046;-64
2021/08/25 02:02:01;;;;;;;31.98;13.93;;;;;;;21.74;63.87;99757.66;5034233;28;20394;-64
2021/08/25 02:04:28;;;;;;;35.67;13.60;;;;;;;21.73;63.49;99738.97;5033004;28;20045;-63
2021/08/25 02:06:55;;;;;;;42.15;14.50;;;;;;;21.77;63.51;99746.34;5034322;28;20129;-63
2021/08/25 02:09:22;;;;;;;28.13;12.73;;;;;;;21.84;63.73;99754.19;5034040;28;20120;-64
2021/08/25 02:11:49;;;;;;;36.85;13.40;;;;;;;21.78;63.32;99738.69;5034062;28;20132;-63
2021/08/25 02:14:16;;;;;;;33.47;13.57;;;;;;;21.83;63.56;99740.38;5033684;28;20136;-63
2021/08/25 02:16:43;;;;;;;29.50;12.02;;;;;;;21.87;63.43;99750.63;5032589;28;20084;-64
2021/08/25 02:19:10;;;;;;;33.55;12.65;;;;;;;21.85;63.31;99753.03;5033783;28;20518;-63
2021/08/25 02:21:37;;;;;;;28.70;14.00;;;;;;;21.79;63.45;99748.03;5033796;28;20603;-64
2021/08/25 02:24:04;;;;;;;29.90;13.35;;;;;;;21.79;63.01;99748.03;5036424;28;20125;-63
2021/08/25 02:26:31;;;;;;;30.75;12.30;;;;;;;21.74;63.26;99749.13;5054078;28;20080;-63
2021/08/25 02:28:58;;;;;;;32.90;12.63;;;;;;;21.72;63.49;99749.53;5053862;28;20099;-63
2021/08/25 02:31:25;;;;;;;21.10;10.93;;;;;;;21.70;63.45;99745.41;5049176;28;20128;-64
2021/08/25 02:33:52;;;;;;;27.27;11.75;;;;;;;21.60;63.08;99729.78;5033817;28;20045;-64
2021/08/25 02:36:20;;;;;;;22.55;10.23;;;;;;;21.64;62.97;99742.06;5041225;28;20151;-64
2021/08/25 02:38:48;;;;;;;24.20;10.43;;;;;;;21.48;62.98;99725.09;5053436;28;20599;-64
2021/08/25 02:41:17;;;;;;;21.08;9.68;;;;;;;21.51;62.75;99732.03;5044985;28;20084;-63
2021/08/25 02:43:44;;;;;;;23.75;11.10;;;;;;;21.53;62.68;99753.19;5033428;28;20125;-64
2021/08/25 02:46:10;;;;;;;26.75;10.45;;;;;;;21.43;62.72;99745.25;5033188;28;20121;-63
2021/08/25 02:48:37;;;;;;;21.23;10.45;;;;;;;21.38;62.64;99748.41;5035365;28;20041;-64
2021/08/25 02:51:04;;;;;;;22.58;10.20;;;;;;;21.30;62.91;99743.75;5053184;28;20132;-64
2021/08/25 02:53:31;;;;;;;22.15;9.60;;;;;;;21.26;62.83;99740.84;5053038;28;20127;-65
2021/08/25 02:55:58;;;;;;;18.77;10.23;;;;;;;21.38;62.82;99762.59;5053410;28;20088;-64
2021/08/25 02:58:25;;;;;;;23.85;10.30;;;;;;;21.35;62.92;99749.16;5040100;28;20128;-65
2021/08/25 03:00:52;;;;;;;24.10;10.20;;;;;;;21.34;63.08;99755.19;5032947;28;20056;-65
2021/08/25 03:03:19;;;;;;;23.55;9.82;;;;;;;21.30;63.08;99755.09;5033171;28;20045;-65
2021/08/25 03:05:46;;;;;;;26.23;10.60;;;;;;;21.33;63.23;99754.34;5033367;28;20046;-64
2021/08/25 03:08:13;;;;;;;22.02;10.73;;;;;;;21.35;63.42;99745.50;5031813;28;20049;-65
2021/08/25 03:10:40;;;;;;;27.98;11.43;;;;;;;21.32;63.74;99747.03;5032718;28;20085;-65
2021/08/25 03:13:07;;;;;;;27.23;11.45;;;;;;;21.36;63.95;99742.25;5032818;28;20132;-64
2021/08/25 03:15:34;;;;;;;28.02;11.52;;;;;;;21.40;64.00;99740.34;5033499;28;20172;-65
2021/08/25 03:18:02;;;;;;;35.50;12.50;;;;;;;21.36;64.44;99738.59;5032691;28;20533;-65
2021/08/25 03:20:29;;;;;;;31.85;12.23;;;;;;;21.40;64.79;99742.34;5032595;28;20050;-65
2021/08/25 03:22:56;;;;;;;36.28;12.75;;;;;;;21.39;64.94;99737.88;5032737;28;20568;-65
2021/08/25 03:25:23;;;;;;;29.83;13.43;;;;;;;21.42;65.15;99749.31;5032907;28;20121;-65
2021/08/25 03:27:50;;;;;;;28.25;12.20;;;;;;;21.41;65.58;99744.81;5032568;28;20136;-63
2021/08/25 03:30:17;;;;;;;37.38;12.75;;;;;;;21.33;65.60;99736.47;5032321;28;20489;-64
2021/08/25 03:32:43;;;;;;;35.85;12.05;;;;;;;21.20;65.40;99716.75;5032994;28;20085;-63
2021/08/25 03:35:10;;;;;;;29.63;11.60;;;;;;;21.44;65.73;99738.41;5032525;28;20076;-64
2021/08/25 03:37:38;;;;;;;33.20;12.88;;;;;;;21.42;65.91;99729.41;5032449;28;20171;-63
2021/08/25 03:40:07;;;;;;;25.67;12.45;;;;;;;21.50;65.86;99731.22;5032160;28;20128;-63
2021/08/25 03:42:34;;;;;;;26.27;11.80;;;;;;;21.57;66.07;99753.25;5050843;28;20173;-63
2021/08/25 03:45:01;;;;;;;35.65;13.27;;;;;;;21.61;66.18;99757.00;5052395;28;20140;-63
2021/08/25 03:47:29;;;;;;;41.03;13.27;;;;;;;21.61;66.09;99751.34;5049994;28;20124;-63
2021/08/25 03:49:56;;;;;;;32.58;12.50;;;;;;;21.60;66.07;99740.31;5032823;28;20129;-63
2021/08/25 03:52:23;;;;;;;33.92;13.38;;;;;;;21.59;66.03;99750.06;5052267;28;20438;-63
2021/08/25 03:54:50;;;;;;;29.27;12.52;;;;;;;21.50;66.03;99731.22;5052375;28;20045;-63
2021/08/25 03:57:17;;;;;;;34.08;13.02;;;;;;;21.62;66.07;99749.31;5043588;28;20060;-63
2021/08/25 03:59:43;;;;;;;34.13;13.93;;;;;;;21.72;66.27;99754.38;5031759;28;20132;-63
2021/08/25 04:02:10;;;;;;;35.88;12.63;;;;;;;21.76;66.13;99755.28;5047637;28;20524;-64
2021/08/25 04:04:37;;;;;;;28.77;12.88;;;;;;;21.62;66.16;99737.94;5052149;28;20099;-64
2021/08/25 04:07:04;;;;;;;31.88;14.50;;;;;;;21.62;66.11;99740.78;5038796;28;20133;-64
2021/08/25 04:09:31;;;;;;;38.88;12.85;;;;;;;21.65;66.24;99749.38;5032120;28;20120;-64
2021/08/25 04:11:57;;;;;;;34.15;12.30;;;;;;;21.55;66.33;99732.13;5032095;28;20080;-64
2021/08/25 04:14:24;;;;;;;34.00;13.13;;;;;;;21.60;66.55;99741.13;5032272;28;20049;-64
2021/08/25 04:16:51;;;;;;;36.67;12.80;;;;;;;21.41;66.92;99736.31;5032217;28;20084;-64
2021/08/25 04:19:18;;;;;;;35.47;12.63;;;;;;;21.41;66.98;99741.97;5047142;28;20167;-64
2021/08/25 04:21:45;;;;;;;42.58;13.52;;;;;;;21.36;67.06;99719.53;5032079;28;20141;-64
2021/08/25 04:24:11;;;;;;;32.85;12.70;;;;;;;21.41;66.56;99733.47;5032445;28;20125;-63
2021/08/25 04:26:38;;;;;;;36.67;13.07;;;;;;;21.38;67.05;99739.88;5031968;28;20084;-63
2021/08/25 04:29:05;;;;;;;41.38;12.52;;;;;;;21.27;67.00;99728.28;5031822;28;20550;-64
2021/08/25 04:31:32;;;;;;;35.42;12.93;;;;;;;21.36;67.04;99736.59;5031953;28;20141;-63
2021/08/25 04:33:59;;;;;;;31.05;12.93;;;;;;;21.47;67.19;99731.13;5030957;28;20414;-64
2021/08/25 04:36:26;;;;;;;38.22;14.05;;;;;;;21.64;67.06;99729.84;5043328;28;20143;-64
2021/08/25 04:38:53;;;;;;;31.42;12.02;;;;;;;21.58;66.84;99734.22;5051703;28;20053;-64
2021/08/25 04:41:19;;;;;;;35.22;12.27;;;;;;;21.40;67.00;99742.34;5035852;28;20128;-64
2021/08/25 04:43:46;;;;;;;29.73;12.10;;;;;;;21.16;67.60;99740.56;5031970;28;20080;-64
2021/08/25 04:46:17;;;;;;;30.08;12.10;;;;;;;20.96;67.84;99734.88;5031967;28;20077;-64
2021/08/25 04:48:44;;;;;;;32.70;12.55;;;;;;;20.97;67.70;99747.06;5031714;28;20057;-64
2021/08/25 04:51:12;;;;;;;26.60;12.88;;;;;;;20.85;67.94;99732.97;5031678;28;20089;-65
2021/08/25 04:53:39;;;;;;;47.13;15.95;;;;;;;20.73;67.96;99714.06;5031578;28;20504;-65
2021/08/25 04:56:07;;;;;;;48.50;15.73;;;;;;;20.93;67.96;99727.13;5031725;28;20125;-65
2021/08/25 04:58:34;;;;;;;43.70;16.40;;;;;;;21.08;68.00;99719.72;5032219;28;20084;-64
2021/08/25 05:01:04;;;;;;;37.58;14.43;;;;;;;21.27;67.59;99727.47;5031532;28;20132;-66
2021/08/25 05:03:32;;;;;;;31.73;13.85;;;;;;;21.26;67.26;99722.94;5031635;28;20133;-64
2021/08/25 05:05:59;;;;;;;32.40;14.13;;;;;;;21.42;67.37;99742.81;5031779;28;20084;-64
2021/08/25 05:08:27;;;;;;;33.72;14.20;;;;;;;21.38;66.91;99734.22;5031961;28;20076;-64
2021/08/25 05:10:54;;;;;;;40.20;14.18;;;;;;;21.36;67.27;99739.44;5032809;28;20553;-64
2021/08/25 05:13:21;;;;;;;36.25;12.65;;;;;;;21.44;66.88;99758.28;5035191;28;20120;-64
2021/08/25 05:15:47;;;;;;;26.13;12.88;;;;;;;21.37;67.35;99741.09;5035647;28;20081;-64
2021/08/25 05:18:14;;;;;;;20.35;9.73;;;;;;;21.43;67.13;99759.47;5035286;28;20080;-64
2021/08/25 05:20:41;;;;;;;29.15;12.10;;;;;;;21.20;67.26;99741.50;5035254;28;20073;-63
2021/08/25 05:23:08;;;;;;;25.80;9.80;;;;;;;21.23;67.46;99761.47;5035278;28;20129;-64
2021/08/25 05:25:35;;;;;;;20.88;10.93;;;;;;;21.16;67.55;99769.81;5035130;28;20121;-64
2021/08/25 05:28:02;;;;;;;26.45;10.57;;;;;;;21.00;67.71;99764.16;5034887;28;20120;-63
2021/08/25 05:30:29;;;;;;;28.80;9.80;;;;;;;20.95;67.87;99767.28;5035035;28;20506;-63
2021/08/25 05:32:56;;;;;;;24.83;10.57;;;;;;;20.96;67.78;99783.13;5034713;28;20471;-63
2021/08/25 05:35:23;;;;;;;26.25;9.73;;;;;;;20.85;68.04;99770.69;5033584;28;20060;-63
2021/08/25 05:37:51;;;;;;;26.75;10.40;;;;;;;20.89;68.06;99785.81;5034758;28;20501;-64
2021/08/25 05:40:18;;;;;;;28.98;12.05;;;;;;;20.86;68.41;99780.06;5033892;28;20045;-63
2021/08/25 05:42:45;;;;;;;25.65;12.35;;;;;;;20.80;68.44;99771.00;5034635;28;20049;-64
2021/08/25 05:45:13;;;;;;;26.58;11.02;;;;;;;20.91;68.40;99788.25;5033440;28;20379;-63
2021/08/25 05:47:40;;;;;;;27.33;11.60;;;;;;;21.04;68.66;99801.97;5034430;28;20489;-64
2021/08/25 05:50:08;;;;;;;28.67;11.13;;;;;;;21.03;68.35;99785.31;5034502;28;20128;-64
2021/08/25 05:52:35;;;;;;;22.00;10.88;;;;;;;21.13;68.47;99800.94;5034176;28;20046;-63
2021/08/25 05:55:03;;;;;;;29.50;10.50;;;;;;;21.10;68.38;99801.69;5034365;28;20140;-63
2021/08/25 05:57:30;;;;;;;24.77;11.07;;;;;;;20.83;68.25;99765.41;5034313;28;20133;-64
2021/08/25 05:59:57;;;;;;;22.35;9.35;;;;;;;21.04;68.07;99793.47;5034187;28;20572;-64
2021/08/25 06:02:24;;;;;;;22.55;11.38;;;;;;;21.04;68.23;99796.28;5034387;28;20045;-64
2021/08/25 06:04:51;;;;;;;25.02;11.35;;;;;;;21.11;68.27;99817.53;5034631;28;20049;-63
2021/08/25 06:07:18;;;;;;;25.33;11.88;;;;;;;21.11;68.58;99823.22;5034158;28;20080;-63
2021/08/25 06:09:45;;;;;;;16.40;9.10;;;;;;;20.92;68.57;99809.78;5034431;28;20470;-63
2021/08/25 06:12:12;;;;;;;23.95;9.57;;;;;;;20.91;68.44;99810.97;5033816;28;20552;-63
2021/08/25 06:14:38;;;;;;;18.50;9.30;;;;;;;20.78;68.83;99827.28;5034118;28;20434;-62
2021/08/25 06:17:05;;;;;;;20.98;10.48;;;;;;;20.78;68.98;99818.75;5034021;28;20050;-63
2021/08/25 06:19:32;;;;;;;18.30;9.18;;;;;;;20.57;69.13;99787.84;5047619;28;20126;-63
2021/08/25 06:21:59;;;;;;;24.55;9.45;;;;;;;20.85;68.98;99844.47;5053096;28;20052;-62
2021/08/25 06:24:26;;;;;;;15.68;8.15;;;;;;;20.68;69.20;99828.63;5052567;28;20566;-63
2021/08/25 06:26:53;;;;;;;12.50;8.43;;;;;;;20.40;69.10;99822.22;5054068;28;20132;-62
2021/08/25 06:29:20;;;;;;;12.32;6.60;;;;;;;20.36;69.53;99854.13;5053555;28;20583;-63
2021/08/25 06:31:47;;;;;;;14.10;8.38;;;;;;;20.28;69.89;99851.47;5053861;28;20493;-63
2021/08/25 06:34:13;;;;;;;13.82;8.23;;;;;;;20.26;69.96;99845.34;5050145;28;20092;-62
2021/08/25 06:36:40;;;;;;;16.17;8.52;;;;;;;20.25;70.10;99853.03;5033678;28;20077;-63
2021/08/25 06:39:08;;;;;;;14.55;8.63;;;;;;;20.33;70.45;99863.34;5033117;28;20091;-63
2021/08/25 06:41:35;;;;;;;12.38;7.43;;;;;;;20.38;70.32;99862.28;5051223;28;20089;-63
2021/08/25 06:44:02;;;;;;;13.10;7.60;;;;;;;20.39;70.18;99863.94;5053793;28;20124;-62
2021/08/25 06:46:29;;;;;;;13.25;7.80;;;;;;;20.43;70.03;99867.69;5053375;28;20091;-62
2021/08/25 06:48:56;;;;;;;16.52;8.20;;;;;;;20.43;70.38;99859.16;5036773;28;20052;-62
2021/08/25 06:51:23;;;;;;;16.20;8.25;;;;;;;20.52;69.95;99853.38;5033241;28;20136;-62
2021/08/25 06:53:50;;;;;;;16.05;8.32;;;;;;;20.61;70.09;99861.69;5033154;28;20084;-62
2021/08/25 06:56:17;;;;;;;21.77;8.18;;;;;;;20.68;69.88;99864.72;5033642;28;20087;-63
2021/08/25 06:58:44;;;;;;;19.40;9.15;;;;;;;20.58;70.08;99852.72;5033173;28;20482;-63
2021/08/25 07:01:10;;;;;;;16.00;8.63;;;;;;;20.65;70.22;99865.44;5041198;28;20084;-62
2021/08/25 07:03:38;;;;;;;16.95;8.55;;;;;;;20.66;69.99;99864.25;5050479;28;20509;-63
2021/08/25 07:06:05;;;;;;;17.10;8.30;;;;;;;20.69;70.11;99869.22;5033010;28;20052;-64
2021/08/25 07:08:32;;;;;;;16.20;8.90;;;;;;;20.57;70.00;99870.91;5032830;28;20085;-64
2021/08/25 07:10:58;;;;;;;16.67;8.13;;;;;;;20.43;70.24;99859.16;5032880;28;20099;-64
2021/08/25 07:13:25;;;;;;;13.55;8.18;;;;;;;20.51;70.34;99871.56;5033600;28;20073;-63
2021/08/25 07:15:52;;;;;;;18.60;8.98;;;;;;;20.64;70.38;99875.97;5032820;28;20137;-64
2021/08/25 07:18:19;;;;;;;14.55;8.63;;;;;;;20.75;69.99;99879.06;5033097;28;20103;-64
2021/08/25 07:20:46;;;;;;;17.55;9.32;;;;;;;20.76;70.21;99855.22;5032696;28;20132;-64
2021/08/25 07:23:14;;;;;;;19.48;8.65;;;;;;;20.63;69.79;99840.28;5032567;28;20545;-64
2021/08/25 07:25:42;;;;;;;14.57;8.48;;;;;;;20.75;69.68;99862.06;5032657;28;20129;-64
2021/08/25 07:28:09;;;;;;;13.82;7.93;;;;;;;20.60;69.80;99841.00;5042286;28;20052;-64
2021/08/25 07:30:36;;;;;;;12.75;7.85;;;;;;;20.72;69.71;99863.63;5051739;28;20250;-64
2021/08/25 07:33:03;;;;;;;15.57;8.93;;;;;;;20.57;69.69;99855.91;5052497;28;20041;-64
2021/08/25 07:35:30;;;;;;;18.20;8.70;;;;;;;20.68;69.61;99876.06;5051933;28;20048;-64
2021/08/25 07:37:57;;;;;;;16.63;8.57;;;;;;;20.75;69.67;99877.09;5035528;28;20072;-64
2021/08/25 07:40:25;;;;;;;15.80;8.35;;;;;;;20.69;69.44;99849.34;5031968;28;20557;-64
2021/08/25 07:42:51;;;;;;;20.00;10.00;;;;;;;20.82;69.57;99871.59;5032586;28;20128;-64
2021/08/25 07:45:19;;;;;;;19.23;9.50;;;;;;;20.76;69.74;99860.88;5032142;28;20111;-64
2021/08/25 07:47:46;;;;;;;21.25;10.20;;;;;;;20.97;69.48;99884.13;5032973;28;20497;-63
2021/08/25 07:50:14;;;;;;;18.52;10.55;;;;;;;20.95;69.61;99883.66;5032499;28;20485;-64
2021/08/25 07:52:42;;;;;;;21.88;10.40;;;;;;;21.01;69.61;99889.88;5032349;28;20085;-64
2021/08/25 07:55:09;;;;;;;17.83;9.80;;;;;;;21.11;69.38;99894.19;5031007;28;20081;-63
2021/08/25 07:57:36;;;;;;;16.55;9.88;;;;;;;21.19;69.12;99898.84;5032240;28;20073;-64
2021/08/25 08:00:04;;;;;;;19.23;9.25;;;;;;;21.39;69.11;99894.06;5040333;28;20048;-64
2021/08/25 08:02:34;;;;;;;22.70;10.52;;;;;;;21.48;68.64;99869.97;5052569;28;20190;-63
2021/08/25 08:05:02;;;;;;;16.38;9.68;;;;;;;22.03;68.13;99889.00;5051158;28;20048;-63
2021/08/25 08:07:29;;;;;;;22.77;9.65;;;;;;;22.46;67.26;99902.09;5050817;28;20116;-63
2021/08/25 08:09:56;;;;;;;17.65;9.40;;;;;;;22.81;66.79;99912.50;5050284;28;20136;-63
2021/08/25 08:12:25;;;;;;;17.92;9.73;;;;;;;23.02;66.34;99909.25;5032299;28;20121;-63
2021/08/25 08:14:52;;;;;;;16.95;10.13;;;;;;;23.12;65.75;99905.75;5040723;28;20544;-63
2021/08/25 08:17:21;;;;;;;14.90;8.45;;;;;;;22.99;65.61;99919.38;5052031;28;20128;-63
2021/08/25 08:19:49;;;;;;;22.33;11.73;;;;;;;22.83;65.37;99907.25;5052149;28;20124;-62
2021/08/25 08:22:16;;;;;;;18.88;11.23;;;;;;;22.90;65.06;99913.88;5040184;28;20511;-62
2021/08/25 08:24:43;;;;;;;21.50;11.20;;;;;;;23.03;65.52;99914.56;5031975;28;20080;-62
2021/08/25 08:27:10;;;;;;;18.38;10.75;;;;;;;23.11;65.03;99904.94;5032330;28;20084;-62
2021/08/25 08:29:37;;;;;;;19.55;10.77;;;;;;;23.26;64.70;99920.22;5031911;28;20132;-62
2021/08/25 08:32:05;;;;;;;20.08;11.18;;;;;;;23.38;64.35;99922.88;5031721;28;20037;-62
2021/08/25 08:34:35;;;;;;;19.92;11.65;;;;;;;23.33;64.14;99894.72;5032071;28;20080;-62
2021/08/25 08:37:03;;;;;;;20.13;11.13;;;;;;;23.49;64.02;99916.53;5031710;28;20124;-62
2021/08/25 08:39:30;;;;;;;22.42;11.68;;;;;;;23.55;63.58;99914.97;5032236;28;20084;-63
2021/08/25 08:41:57;;;;;;;21.70;11.32;;;;;;;23.68;63.58;99922.13;5031922;28;20076;-62
2021/08/25 08:44:26;;;;;;;22.17;11.75;;;;;;;23.75;63.10;99901.47;5030164;28;20124;-62
2021/08/25 08:46:53;;;;;;;23.83;12.70;;;;;;;23.96;62.95;99915.19;5033509;28;20055;-62
2021/08/25 08:49:21;;;;;;;18.80;11.32;;;;;;;24.02;62.46;99913.63;5035466;28;20049;-63
2021/08/25 08:51:50;;;;;;;24.48;11.27;;;;;;;24.20;62.30;99908.97;5035707;28;20489;-62
2021/08/25 08:54:20;;;;;;;21.30;11.90;;;;;;;24.46;62.26;99904.44;5035076;28;20103;-62
2021/08/25 08:56:50;;;;;;;22.30;11.85;;;;;;;24.72;61.54;99918.59;5035879;28;20132;-62
2021/08/25 08:59:16;;;;;;;20.40;11.52;;;;;;;24.86;61.00;99934.22;5035502;28;20461;-63
2021/08/25 09:01:44;;;;;;;18.75;10.70;;;;;;;25.00;61.17;99945.78;5035216;28;20554;-63
2021/08/25 09:04:32;;;;;;;17.67;9.88;;;;;;;25.56;60.38;99920.97;5034072;28;20052;-63
2021/08/25 09:07:00;;;;;;;20.25;10.63;;;;;;;25.86;59.41;99930.16;5044652;28;20044;-63
2021/08/25 09:09:27;;;;;;;20.02;11.73;;;;;;;25.81;58.96;99936.25;5055571;28;20489;-63
2021/08/25 09:11:55;;;;;;;19.10;11.65;;;;;;;25.64;58.64;99943.50;5054498;28;20071;-64
2021/08/25 09:14:26;;;;;;;15.50;10.75;;;;;;;25.54;59.20;99952.81;5047552;28;20465;-63
2021/08/25 09:16:53;;;;;;;18.17;10.63;;;;;;;25.51;59.12;99953.59;5035055;28;20049;-63
2021/08/25 09:19:24;;;;;;;19.05;10.23;;;;;;;25.42;58.91;99939.66;5035205;28;20453;-63
2021/08/25 09:21:53;;;;;;;19.48;10.50;;;;;;;25.40;58.72;99947.81;5035937;28;20546;-63
2021/08/25 09:24:36;;;;;;;21.92;10.63;;;;;;;25.47;58.61;99941.31;5054815;28;20295;-63
2021/08/25 09:27:09;;;;;;;14.77;8.68;;;;;;;25.54;58.44;99929.94;5049089;28;20092;-63
2021/08/25 09:29:38;;;;;;;20.55;9.45;;;;;;;25.51;58.17;99943.00;5035351;28;20081;-63
2021/08/25 09:32:18;;;;;;;19.63;10.77;;;;;;;25.38;58.44;99944.50;5035283;28;20535;-63
2021/08/25 09:34:46;;;;;;;25.48;11.23;;;;;;;25.18;58.20;99946.78;5034579;28;20052;-63
2021/08/25 09:37:17;;;;;;;24.23;11.63;;;;;;;24.92;58.39;99938.34;5034889;28;20470;-63
2021/08/25 09:40:12;;;;;;;21.27;10.82;;;;;;;24.66;59.36;99943.00;5034259;28;20052;-63
2021/08/25 09:42:42;;;;;;;29.70;12.10;;;;;;;24.52;59.33;99946.50;5034864;28;20046;-63
2021/08/25 09:45:13;;;;;;;22.70;11.93;;;;;;;24.27;59.83;99928.22;5034367;28;20137;-63
2021/08/25 09:47:50;;;;;;;18.58;9.15;;;;;;;24.22;59.46;99946.50;5035247;28;20140;-63
2021/08/25 09:50:20;;;;;;;17.67;10.70;;;;;;;23.98;59.67;99935.59;5034188;28;20481;-63
2021/08/25 09:52:47;;;;;;;;;;;;;;;23.89;60.34;99948.09;5034880;28;20077;-63
2021/08/25 09:55:16;;;;;;;22.40;10.00;;;;;;;24.26;59.85;99946.56;5035466;28;19921;-63
2021/08/25 09:57:44;;;;;;;15.13;8.85;;;;;;;24.50;59.70;99937.50;5053755;28;20113;-63
2021/08/25 10:00:12;;;;;;;17.23;9.93;;;;;;;24.68;59.14;99951.16;5053961;28;20140;-63
2021/08/25 10:02:40;;;;;;;15.85;9.25;;;;;;;24.22;58.79;99878.03;5049884;28;20270;-63
2021/08/25 10:05:09;;;;;;;19.30;10.05;;;;;;;24.51;59.11;99924.03;5033868;28;20056;-63
2021/08/25 10:07:36;;;;;;;14.57;8.57;;;;;;;24.75;58.71;99934.94;5034196;28;20085;-63
2021/08/25 10:10:04;;;;;;;17.42;8.48;;;;;;;24.76;58.62;99925.16;5033942;28;20505;-62
2021/08/25 10:12:31;;;;;;;12.48;7.53;;;;;;;24.69;58.36;99919.38;5033884;28;20088;-62
2021/08/25 10:14:57;;;;;;;14.98;8.02;;;;;;;24.98;58.10;99942.50;5034050;28;20064;-63
2021/08/25 10:17:42;;;;;;;14.15;7.40;;;;;;;25.46;57.60;99928.22;5038208;28;20507;-63
2021/08/25 10:20:35;;;;;;;16.77;8.07;;;;;;;26.10;56.78;99925.00;5052893;28;20053;-63
2021/08/25 10:23:03;;;;;;;12.68;8.35;;;;;;;27.20;54.68;99924.50;5052752;28;20052;-63
2021/08/25 10:25:30;;;;;;;14.27;8.15;;;;;;;27.95;53.89;99941.66;5053799;28;20128;-63
2021/08/25 10:28:04;;;;;;;12.82;7.28;;;;;;;28.38;52.63;99909.94;5052723;28;20067;-62
2021/08/25 10:30:55;;;;;;;12.07;6.88;;;;;;;29.17;51.45;99930.41;5053565;28;20091;-63
2021/08/25 10:33:22;;;;;;;12.13;7.28;;;;;;;29.48;50.02;99931.38;5053592;28;20132;-62
2021/08/25 10:35:49;;;;;;;13.75;8.27;;;;;;;29.57;49.42;99932.94;5049698;28;20083;-62
2021/08/25 10:38:20;;;;;;;12.93;8.48;;;;;;;29.21;49.66;99939.81;5033838;28;20080;-62
2021/08/25 10:40:49;;;;;;;16.17;9.02;;;;;;;29.66;48.34;99913.16;5033420;28;20162;-62
2021/08/25 10:43:35;;;;;;;13.65;7.45;;;;;;;29.69;48.06;99929.56;5033307;28;20137;-62
2021/08/25 10:46:04;;;;;;;10.32;6.88;;;;;;;29.79;48.43;99940.16;5033527;28;20132;-63
2021/08/25 10:48:45;;;;;;;15.80;7.38;;;;;;;29.86;47.54;99940.06;5033339;28;20068;-62
2021/08/25 10:51:36;;;;;;;14.13;7.55;;;;;;;29.91;47.94;99945.34;5033360;28;20080;-63
2021/08/25 10:54:05;;;;;;;13.48;6.78;;;;;;;29.76;46.91;99946.75;5030911;28;20152;-62
2021/08/25 10:56:33;;;;;;;;;;;;;;;29.40;48.43;99952.84;5033577;28;20128;-62
2021/08/25 10:59:04;;;;;;;13.98;8.07;;;;;;;29.65;47.08;99960.44;5033054;28;19921;-62
2021/08/25 11:01:40;;;;;;;15.50;8.60;;;;;;;29.11;47.53;99952.22;5032883;28;20150;-62
2021/08/25 11:04:13;;;;;;;12.85;7.93;;;;;;;29.43;47.58;99951.97;5032960;28;20096;-62
2021/08/25 11:06:51;;;;;;;15.27;9.40;;;;;;;29.69;46.68;99967.78;5033293;28;20117;-62
2021/08/25 11:09:28;;;;;;;12.85;7.93;;;;;;;29.35;46.99;99966.84;5032196;28;20077;-61
2021/08/25 11:11:59;;;;;;;17.30;9.93;;;;;;;28.91;47.76;99976.97;5033421;28;20089;-62
2021/08/25 11:14:46;;;;;;;18.70;11.40;;;;;;;28.32;48.22;99963.28;5032709;28;20053;-62
2021/08/25 11:17:20;;;;;;;20.33;11.15;;;;;;;27.69;49.61;99977.31;5033231;28;20076;-62
2021/08/25 11:19:54;;;;;;;22.92;11.05;;;;;;;27.24;50.09;99976.09;5032679;28;20137;-61
2021/08/25 11:22:23;;;;;;;22.48;11.02;;;;;;;26.73;51.04;99980.88;5032739;28;20136;-62
2021/08/25 11:24:55;;;;;;;22.77;12.52;;;;;;;26.18;52.05;99958.13;5032682;28;20113;-61
2021/08/25 11:27:25;;;;;;;29.02;12.48;;;;;;;25.93;52.94;99996.00;5032791;28;20085;-61
2021/08/25 11:30:17;;;;;;;24.20;12.27;;;;;;;25.34;54.11;99985.72;5032567;28;20081;-61